| time (UTC) | temp C | wind direction | speed KPH | gust KPH | rain 1hr cm | rain 24hr cm | rain mn cm | humidity % | barometer mb |
| 20260507050746 | 11 | 277 | 0.0 | 0.0 | 0.48 | 0.33 | 0.33 | 92 | 1011.3 |
| 20260507050243 | 11 | 277 | 0.0 | 0.0 | 0.18 | 0.28 | 0.28 | 91 | 1011.6 |
| 20260507045740 | 11 | 277 | 0.0 | 0.0 | 0.43 | 0.25 | 0.25 | 91 | 1011.3 |
| 20260507045235 | 11 | 277 | 0.0 | 0.0 | 0.66 | 0.23 | 0.23 | 90 | 1011.6 |
| 20260507044733 | 11 | 277 | 0.0 | 0.0 | 0.36 | 0.18 | 0.18 | 90 | 1011.3 |
| 20260507044229 | 11 | 276 | 1.6 | 1.6 | 0.13 | 0.13 | 0.13 | 90 | 1011.2 |
| 20260507043726 | 12 | 132 | 0.0 | 0.0 | 0.00 | 0.10 | 0.10 | 90 | 1010.8 |
| 20260507043223 | 12 | 132 | 0.0 | 0.0 | 0.18 | 0.10 | 0.10 | 90 | 1010.9 |
| 20260507042719 | 12 | 131 | 0.0 | 0.0 | 0.48 | 0.10 | 0.10 | 88 | 1011.1 |
| 20260507042214 | 12 | 62 | 0.0 | 0.0 | 0.30 | 0.08 | 0.08 | 88 | 1011.0 |
| 20260507041712 | 12 | 62 | 0.0 | 1.6 | 0.00 | 0.03 | 0.03 | 86 | 1010.9 |
| 20260507041208 | 12 | 62 | 0.0 | 3.2 | 0.13 | 0.03 | 0.03 | 86 | 1010.8 |
| 20260507040705 | 12 | 264 | 0.0 | 1.6 | 0.00 | 0.00 | 0.00 | 86 | 1010.7 |
| 20260507040201 | 12 | 4 | 0.0 | 1.6 | 0.18 | 0.00 | 0.00 | 86 | 1010.5 |
| 20260507035657 | 13 | 251 | 0.0 | 1.6 | 0.18 | 0.66 | 0.66 | 85 | 1010.6 |
| 20260507035153 | 13 | 275 | 1.6 | 3.2 | 0.13 | 0.64 | 0.64 | 83 | 1010.6 |
| 20260507034650 | 13 | 229 | 0.0 | 1.6 | 0.30 | 0.64 | 0.64 | 83 | 1010.5 |
| 20260507034148 | 13 | 276 | 1.6 | 6.4 | 0.18 | 0.61 | 0.61 | 80 | 1010.7 |
| 20260507033646 | 13 | 282 | 1.6 | 9.7 | 0.00 | 0.58 | 0.58 | 80 | 1010.6 |
| 20260507033143 | 13 | 290 | 3.2 | 4.8 | 0.00 | 0.58 | 0.58 | 79 | 1010.1 |
| 20260507032640 | 13 | 293 | 0.0 | 11.3 | 0.00 | 0.58 | 0.58 | 80 | 1010.5 |
| 20260507032136 | 13 | 292 | 3.2 | 12.9 | 0.00 | 0.58 | 0.58 | 80 | 1010.5 |
| 20260507031633 | 13 | 293 | 8.0 | 9.7 | 0.00 | 0.58 | 0.58 | 82 | 1010.3 |
| 20260507031130 | 14 | 289 | 4.8 | 11.3 | 0.00 | 0.58 | 0.58 | 82 | 1010.4 |
| 20260507030626 | 14 | 292 | 1.6 | 3.2 | 0.00 | 0.58 | 0.58 | 83 | 1010.3 |
| 20260507030124 | 14 | 283 | 1.6 | 4.8 | 0.00 | 0.58 | 0.58 | 82 | 1010.3 |
| 20260507025621 | 15 | 221 | 0.0 | 4.8 | 0.00 | 0.58 | 0.58 | 82 | 1010.0 |
| 20260507025118 | 15 | 278 | 0.0 | 4.8 | 0.00 | 0.58 | 0.58 | 80 | 1010.3 |
| 20260507024616 | 15 | 279 | 1.6 | 4.8 | 0.00 | 0.58 | 0.58 | 79 | 1010.3 |
| 20260507024113 | 15 | 283 | 6.4 | 6.4 | 0.00 | 0.58 | 0.58 | 78 | 1010.2 |
| 20260507023608 | 15 | 288 | 3.2 | 6.4 | 0.00 | 0.58 | 0.58 | 78 | 1010.1 |
| 20260507023106 | 15 | 279 | 3.2 | 3.2 | 0.00 | 0.58 | 0.58 | 79 | 1010.0 |
| 20260507022603 | 15 | 281 | 0.0 | 1.6 | 0.00 | 0.58 | 0.58 | 79 | 1010.0 |
| 20260507022058 | 15 | 274 | 1.6 | 4.8 | 0.00 | 0.58 | 0.58 | 79 | 1010.1 |
| 20260507021555 | 15 | 292 | 3.2 | 4.8 | 0.00 | 0.58 | 0.58 | 79 | 1010.1 |
| 20260507021051 | 15 | 280 | 8.0 | 9.7 | 0.00 | 0.58 | 0.58 | 79 | 1010.0 |
| 20260507020549 | 15 | 278 | 1.6 | 6.4 | 0.00 | 0.58 | 0.58 | 80 | 1010.0 |
| 20260507020045 | 15 | 290 | 1.6 | 6.4 | 0.00 | 0.58 | 0.58 | 80 | 1010.0 |
| 20260507015544 | 15 | 298 | 1.6 | 4.8 | 0.00 | 0.58 | 0.58 | 80 | 1010.0 |
| 20260507015041 | 15 | 278 | 1.6 | 3.2 | 0.00 | 0.58 | 0.58 | 81 | 1010.0 |
| 20260507014537 | 15 | 290 | 1.6 | 6.4 | 0.00 | 0.58 | 0.58 | 80 | 1010.2 |
| 20260507014033 | 15 | 281 | 4.8 | 4.8 | 0.00 | 0.58 | 0.58 | 80 | 1010.4 |
| 20260507013530 | 15 | 286 | 4.8 | 4.8 | 0.00 | 0.58 | 0.58 | 80 | 1010.3 |
| 20260507013027 | 16 | 276 | 1.6 | 11.3 | 0.00 | 0.58 | 0.58 | 78 | 1010.1 |
| 20260507012524 | 16 | 271 | 4.8 | 9.7 | 0.00 | 0.58 | 0.58 | 77 | 1010.5 |
| 20260507012020 | 16 | 278 | 8.0 | 6.4 | 0.00 | 0.58 | 0.58 | 77 | 1010.2 |
| 20260507011518 | 16 | 281 | 3.2 | 4.8 | 0.00 | 0.58 | 0.58 | 78 | 1010.2 |
| 20260507011014 | 16 | 276 | 3.2 | 11.3 | 0.00 | 0.58 | 0.58 | 78 | 1009.7 |
| 20260507010508 | 16 | 283 | 3.2 | 4.8 | 0.00 | 0.58 | 0.58 | 79 | 1010.0 |
| 20260507010005 | 16 | 274 | 6.4 | 9.7 | 0.00 | 0.58 | 0.58 | 79 | 1010.0 |
| 20260507005503 | 16 | 262 | 4.8 | 9.7 | 0.00 | 0.58 | 0.58 | 81 | 1009.6 |
| 20260507004959 | 16 | 321 | 1.6 | 4.8 | 0.00 | 0.58 | 0.58 | 82 | 1009.5 |
| 20260507004456 | 16 | 288 | 8.0 | 12.9 | 0.00 | 0.58 | 0.58 | 81 | 1009.6 |
| 20260507003953 | 16 | 305 | 4.8 | 9.7 | 0.00 | 0.58 | 0.58 | 80 | 1009.5 |
| 20260507003448 | 17 | 247 | 8.0 | 11.3 | 0.00 | 0.58 | 0.58 | 80 | 1009.4 |
| 20260507002943 | 17 | 295 | 6.4 | 11.3 | 0.00 | 0.58 | 0.58 | 81 | 1009.4 |
| 20260507002440 | 17 | 290 | 6.4 | 12.9 | 0.00 | 0.58 | 0.58 | 82 | 1009.2 |
| 20260507001937 | 17 | 251 | 3.2 | 9.7 | 0.00 | 0.58 | 0.58 | 83 | 1009.1 |
| 20260507001433 | 17 | 260 | 4.8 | 14.5 | 0.00 | 0.58 | 0.58 | 83 | 1009.1 |
| 20260507000931 | 18 | 287 | 4.8 | 6.4 | 0.00 | 0.58 | 0.58 | 87 | 1008.6 |
| 20260507000427 | 18 | 294 | 3.2 | 6.4 | 0.00 | 0.58 | 0.58 | 87 | 1008.5 |
| 20260506235922 | 18 | 274 | 6.4 | 9.7 | 0.00 | 0.58 | 0.58 | 87 | 1008.2 |
| 20260506235420 | 18 | 265 | 3.2 | 3.2 | 0.00 | 0.58 | 0.58 | 87 | 1008.1 |
| 20260506234915 | 18 | 286 | 3.2 | 3.2 | 0.00 | 0.58 | 0.58 | 88 | 1008.1 |
| 20260506234414 | 18 | 284 | 3.2 | 3.2 | 0.00 | 0.58 | 0.58 | 88 | 1008.1 |
| 20260506233911 | 18 | 272 | 1.6 | 3.2 | 0.00 | 0.58 | 0.58 | 88 | 1008.0 |
| 20260506233407 | 18 | 280 | 1.6 | 9.7 | 0.00 | 0.58 | 0.58 | 89 | 1008.0 |
| 20260506232904 | 18 | 275 | 1.6 | 3.2 | 0.00 | 0.58 | 0.58 | 89 | 1008.1 |
| 20260506232400 | 18 | 276 | 1.6 | 1.6 | 0.00 | 0.58 | 0.58 | 89 | 1007.8 |
| 20260506231856 | 18 | 283 | 1.6 | 1.6 | 0.00 | 0.58 | 0.58 | 89 | 1007.9 |
| 20260506231354 | 18 | 270 | 3.2 | 9.7 | 0.13 | 0.58 | 0.58 | 89 | 1008.0 |
| 20260506230851 | 18 | 289 | 6.4 | 9.7 | 0.13 | 0.58 | 0.58 | 88 | 1008.0 |
| 20260506230348 | 18 | 286 | 1.6 | 6.4 | 0.00 | 0.56 | 0.56 | 87 | 1008.0 |
| 20260506225844 | 18 | 292 | 3.2 | 3.2 | 0.00 | 0.56 | 0.56 | 85 | 1008.0 |
| 20260506225341 | 19 | 278 | 1.6 | 1.6 | 0.00 | 0.56 | 0.56 | 84 | 1007.9 |
| 20260506224838 | 19 | 278 | 1.6 | 4.8 | 0.00 | 0.56 | 0.56 | 83 | 1007.9 |
| 20260506224335 | 19 | 288 | 4.8 | 4.8 | 0.00 | 0.56 | 0.56 | 82 | 1007.9 |
| 20260506223831 | 19 | 283 | 1.6 | 3.2 | 0.00 | 0.56 | 0.56 | 82 | 1007.9 |
| 20260506223326 | 19 | 246 | 1.6 | 4.8 | 0.00 | 0.56 | 0.56 | 81 | 1007.9 |
| 20260506222824 | 19 | 271 | 3.2 | 3.2 | 0.00 | 0.56 | 0.56 | 82 | 1007.8 |
| 20260506222319 | 19 | 282 | 1.6 | 1.6 | 0.00 | 0.56 | 0.56 | 81 | 1007.7 |
| 20260506221813 | 19 | 277 | 1.6 | 1.6 | 0.00 | 0.56 | 0.56 | 81 | 1007.9 |
| 20260506221310 | 20 | 290 | 4.8 | 6.4 | 0.00 | 0.56 | 0.56 | 79 | 1007.6 |
| 20260506220808 | 20 | 282 | 3.2 | 3.2 | 0.00 | 0.56 | 0.56 | 78 | 1007.7 |
| 20260506220307 | 20 | 283 | 1.6 | 6.4 | 0.00 | 0.56 | 0.56 | 78 | 1007.6 |
| 20260506215804 | 20 | 263 | 1.6 | 4.8 | 0.00 | 0.56 | 0.56 | 77 | 1007.5 |
| 20260506215300 | 20 | 289 | 1.6 | 3.2 | 0.00 | 0.56 | 0.56 | 78 | 1007.3 |
| 20260506214756 | 20 | 290 | 1.6 | 4.8 | 0.00 | 0.56 | 0.56 | 77 | 1007.3 |
| 20260506214253 | 20 | 307 | 1.6 | 6.4 | 0.00 | 0.56 | 0.56 | 78 | 1007.4 |
| 20260506213752 | 20 | 297 | 3.2 | 4.8 | 0.00 | 0.56 | 0.56 | 77 | 1007.2 |
| 20260506213248 | 20 | 296 | 6.4 | 11.3 | 0.00 | 0.56 | 0.56 | 77 | 1007.3 |
| 20260506212746 | 20 | 290 | 9.7 | 11.3 | 0.00 | 0.56 | 0.56 | 76 | 1007.3 |
| 20260506212241 | 20 | 288 | 8.0 | 9.7 | 0.00 | 0.56 | 0.56 | 76 | 1007.5 |
| 20260506211737 | 20 | 285 | 3.2 | 6.4 | 0.00 | 0.56 | 0.56 | 76 | 1007.2 |
| 20260506211233 | 20 | 287 | 3.2 | 9.7 | 0.00 | 0.56 | 0.56 | 76 | 1007.0 |
| 20260506210730 | 20 | 255 | 1.6 | 6.4 | 0.00 | 0.56 | 0.56 | 75 | 1007.1 |
| 20260506210227 | 20 | 280 | 9.7 | 16.1 | 0.00 | 0.56 | 0.56 | 74 | 1007.0 |
| 20260506205724 | 21 | 269 | 6.4 | 12.9 | 0.00 | 0.56 | 0.56 | 73 | 1007.1 |
| 20260506205220 | 21 | 199 | 1.6 | 6.4 | 0.00 | 0.56 | 0.56 | 73 | 1006.8 |
| 20260506204717 | 21 | 260 | 1.6 | 3.2 | 0.00 | 0.56 | 0.56 | 74 | 1006.7 |
| 20260506204214 | 21 | 223 | 3.2 | 4.8 | 0.00 | 0.56 | 0.56 | 73 | 1006.9 |
| 20260506203712 | 21 | 273 | 3.2 | 4.8 | 0.00 | 0.56 | 0.56 | 73 | 1006.8 |
| 20260506203209 | 20 | 314 | 1.6 | 6.4 | 0.00 | 0.56 | 0.56 | 75 | 1007.2 |
| 20260506202707 | 20 | 256 | 8.0 | 12.9 | 0.00 | 0.56 | 0.56 | 74 | 1007.1 |
| 20260506202203 | 20 | 283 | 1.6 | 6.4 | 0.00 | 0.56 | 0.56 | 76 | 1007.0 |
| 20260506201700 | 20 | 280 | 6.4 | 6.4 | 0.00 | 0.56 | 0.56 | 76 | 1007.1 |
| 20260506201156 | 20 | 294 | 8.0 | 11.3 | 0.00 | 0.56 | 0.56 | 76 | 1007.1 |
| 20260506200653 | 20 | 286 | 4.8 | 4.8 | 0.00 | 0.56 | 0.56 | 76 | 1006.9 |
| 20260506200150 | 19 | 299 | 1.6 | 4.8 | 0.00 | 0.56 | 0.56 | 78 | 1007.0 |
| 20260506195646 | 19 | 265 | 3.2 | 9.7 | 0.00 | 0.56 | 0.56 | 78 | 1007.1 |
| 20260506195143 | 19 | 298 | 3.2 | 6.4 | 0.00 | 0.56 | 0.56 | 78 | 1007.2 |
| 20260506194640 | 19 | 271 | 3.2 | 4.8 | 0.00 | 0.56 | 0.56 | 79 | 1007.1 |
| 20260506194136 | 19 | 285 | 8.0 | 11.3 | 0.00 | 0.56 | 0.56 | 77 | 1007.1 |
| 20260506193634 | 19 | 274 | 3.2 | 11.3 | 0.00 | 0.56 | 0.56 | 77 | 1007.2 |
| 20260506193131 | 20 | 267 | 3.2 | 6.4 | 0.00 | 0.56 | 0.56 | 77 | 1007.2 |
| 20260506192628 | 20 | 283 | 3.2 | 6.4 | 0.00 | 0.56 | 0.56 | 75 | 1007.2 |
| 20260506192124 | 20 | 306 | 6.4 | 6.4 | 0.00 | 0.56 | 0.56 | 76 | 1007.1 |
| 20260506191621 | 20 | 281 | 4.8 | 6.4 | 0.00 | 0.56 | 0.56 | 76 | 1007.1 |
| 20260506191117 | 19 | 276 | 4.8 | 11.3 | 0.00 | 0.56 | 0.56 | 77 | 1007.3 |
| 20260506190615 | 19 | 270 | 1.6 | 6.4 | 0.00 | 0.56 | 0.56 | 77 | 1007.1 |
| 20260506190111 | 19 | 255 | 6.4 | 9.7 | 0.00 | 0.56 | 0.56 | 76 | 1007.3 |
| 20260506185608 | 20 | 359 | 3.2 | 12.9 | 0.00 | 0.56 | 0.56 | 76 | 1007.3 |
| 20260506185104 | 20 | 329 | 3.2 | 3.2 | 0.00 | 0.56 | 0.56 | 76 | 1007.4 |
| 20260506184602 | 20 | 284 | 1.6 | 4.8 | 0.00 | 0.56 | 0.56 | 75 | 1007.3 |
| 20260506184059 | 20 | 227 | 1.6 | 4.8 | 0.00 | 0.56 | 0.56 | 75 | 1007.2 |
| 20260506183555 | 20 | 282 | 3.2 | 9.7 | 0.00 | 0.56 | 0.56 | 75 | 1007.6 |
| 20260506183052 | 20 | 83 | 3.2 | 3.2 | 0.00 | 0.56 | 0.56 | 76 | 1007.6 |
| 20260506182549 | 20 | 311 | 3.2 | 4.8 | 0.00 | 0.56 | 0.56 | 79 | 1007.5 |
| 20260506182046 | 18 | 295 | 4.8 | 11.3 | 0.00 | 0.56 | 0.56 | 82 | 1007.8 |
| 20260506181544 | 18 | 256 | 1.6 | 3.2 | 0.00 | 0.56 | 0.56 | 83 | 1007.7 |
| 20260506181041 | 18 | 272 | 1.6 | 6.4 | 0.00 | 0.56 | 0.56 | 83 | 1007.9 |
| 20260506180537 | 18 | 144 | 1.6 | 4.8 | 0.00 | 0.56 | 0.56 | 84 | 1007.8 |
| 20260506180034 | 18 | 263 | 1.6 | 6.4 | 0.00 | 0.56 | 0.56 | 84 | 1008.0 |
| 20260506175531 | 17 | 283 | 0.0 | 9.7 | 0.00 | 0.56 | 0.56 | 85 | 1008.0 |
| 20260506175027 | 17 | 289 | 1.6 | 1.6 | 0.00 | 0.56 | 0.56 | 86 | 1007.9 |
| 20260506174526 | 17 | 185 | 1.6 | 3.2 | 0.00 | 0.56 | 0.56 | 86 | 1008.1 |
| 20260506174021 | 17 | 183 | 1.6 | 4.8 | 0.00 | 0.56 | 0.56 | 86 | 1007.9 |
| 20260506173519 | 17 | 180 | 4.8 | 4.8 | 0.00 | 0.56 | 0.56 | 86 | 1007.9 |
| 20260506173016 | 17 | 269 | 1.6 | 4.8 | 0.00 | 0.56 | 0.56 | 86 | 1007.9 |
| 20260506172514 | 17 | 181 | 3.2 | 9.7 | 0.00 | 0.56 | 0.56 | 86 | 1008.0 |
| 20260506172009 | 17 | 240 | 1.6 | 4.8 | 0.00 | 0.56 | 0.56 | 87 | 1008.0 |
| 20260506171508 | 17 | 287 | 1.6 | 4.8 | 0.00 | 0.56 | 0.56 | 86 | 1007.8 |
| 20260506171005 | 17 | 291 | 0.0 | 6.4 | 0.00 | 0.56 | 0.56 | 87 | 1008.0 |
| 20260506170502 | 17 | 252 | 0.0 | 1.6 | 0.00 | 0.56 | 0.56 | 88 | 1008.1 |
| 20260506165959 | 17 | 284 | 1.6 | 3.2 | 0.00 | 0.56 | 0.56 | 88 | 1007.9 |
| 20260506165458 | 17 | 283 | 0.0 | 1.6 | 0.00 | 0.56 | 0.56 | 89 | 1007.9 |
| 20260506164953 | 17 | 111 | 0.0 | 3.2 | 0.00 | 0.56 | 0.56 | 88 | 1008.0 |
| 20260506164450 | 16 | 286 | 1.6 | 3.2 | 0.00 | 0.56 | 0.56 | 89 | 1007.8 |
| 20260506163948 | 16 | 262 | 1.6 | 1.6 | 0.00 | 0.56 | 0.56 | 89 | 1007.7 |
| 20260506163443 | 16 | 266 | 3.2 | 6.4 | 0.00 | 0.56 | 0.56 | 90 | 1007.9 |
| 20260506162938 | 16 | 171 | 3.2 | 3.2 | 0.00 | 0.56 | 0.56 | 91 | 1008.1 |
| 20260506162436 | 16 | 152 | 1.6 | 3.2 | 0.00 | 0.56 | 0.56 | 91 | 1008.1 |
| 20260506161933 | 16 | 102 | 1.6 | 3.2 | 0.00 | 0.56 | 0.56 | 91 | 1007.9 |
| 20260506161431 | 16 | 180 | 3.2 | 3.2 | 0.00 | 0.56 | 0.56 | 90 | 1008.1 |
| 20260506160928 | 16 | 168 | 0.0 | 1.6 | 0.00 | 0.56 | 0.56 | 91 | 1008.1 |
| 20260506160426 | 16 | 81 | 0.0 | 0.0 | 0.00 | 0.56 | 0.56 | 91 | 1008.2 |
| 20260506155923 | 17 | 242 | 0.0 | 1.6 | 0.00 | 0.56 | 0.56 | 90 | 1008.1 |
| 20260506155420 | 17 | 307 | 1.6 | 1.6 | 0.00 | 0.56 | 0.56 | 91 | 1008.0 |
| 20260506153537 | 16 | 164 | 4.8 | 4.8 | 0.13 | 0.53 | 0.53 | 92 | 1007.5 |
| 20260506153034 | 16 | 108 | 9.7 | 11.3 | 0.00 | 0.51 | 0.51 | 92 | 1007.6 |
| 20260506152531 | 16 | 135 | 9.7 | 12.9 | 0.18 | 0.51 | 0.51 | 92 | 1007.7 |
| 20260506152029 | 16 | 165 | 3.2 | 4.8 | 0.36 | 0.51 | 0.51 | 92 | 1008.1 |
| 20260506151526 | 16 | 164 | 0.0 | 4.8 | 0.30 | 0.48 | 0.48 | 92 | 1008.3 |
| 20260506151023 | 16 | 145 | 3.2 | 4.8 | 0.30 | 0.46 | 0.46 | 91 | 1008.6 |
| 20260506150519 | 16 | 169 | 1.6 | 1.6 | 0.30 | 0.43 | 0.43 | 92 | 1008.6 |
| 20260506150016 | 16 | 153 | 1.6 | 4.8 | 0.30 | 0.41 | 0.41 | 91 | 1008.6 |
| 20260506145513 | 16 | 110 | 0.0 | 1.6 | 0.18 | 0.38 | 0.38 | 91 | 1008.9 |
| 20260506145010 | 16 | 166 | 1.6 | 3.2 | 0.13 | 0.36 | 0.36 | 90 | 1008.9 |
| 20260506144507 | 16 | 240 | 1.6 | 1.6 | 0.18 | 0.33 | 0.33 | 89 | 1009.0 |
| 20260506144005 | 16 | 245 | 1.6 | 1.6 | 0.18 | 0.33 | 0.33 | 89 | 1009.0 |
| 20260506143503 | 16 | 299 | 3.2 | 4.8 | 0.00 | 0.30 | 0.30 | 89 | 1008.9 |
| 20260506143001 | 16 | 229 | 1.6 | 1.6 | 0.00 | 0.30 | 0.30 | 89 | 1008.8 |
| 20260506142458 | 16 | 268 | 0.0 | 3.2 | 0.13 | 0.30 | 0.30 | 89 | 1008.7 |
| 20260506141956 | 16 | 77 | 1.6 | 3.2 | 0.18 | 0.28 | 0.28 | 89 | 1008.7 |
| 20260506141453 | 16 | 173 | 3.2 | 4.8 | 0.18 | 0.28 | 0.28 | 89 | 1008.6 |
| 20260506140952 | 16 | 86 | 1.6 | 3.2 | 0.00 | 0.25 | 0.25 | 89 | 1008.6 |
| 20260506140448 | 16 | 193 | 1.6 | 3.2 | 0.30 | 0.25 | 0.25 | 90 | 1008.4 |
| 20260506135944 | 16 | 126 | 4.8 | 4.8 | 0.18 | 0.23 | 0.23 | 90 | 1008.4 |
| 20260506135442 | 16 | 185 | 3.2 | 3.2 | 0.30 | 0.20 | 0.20 | 89 | 1008.3 |
| 20260506134938 | 16 | 190 | 1.6 | 4.8 | 0.30 | 0.20 | 0.20 | 88 | 1008.4 |
| 20260506134434 | 16 | 165 | 3.2 | 4.8 | 0.30 | 0.15 | 0.15 | 87 | 1008.3 |
| 20260506133931 | 16 | 161 | 1.6 | 1.6 | 0.48 | 0.15 | 0.15 | 85 | 1008.4 |
| 20260506133428 | 17 | 88 | 1.6 | 1.6 | 0.30 | 0.10 | 0.10 | 85 | 1008.7 |
| 20260506132925 | 17 | 127 | 0.0 | 1.6 | 0.13 | 0.08 | 0.08 | 84 | 1008.5 |
| 20260506132422 | 17 | 112 | 0.0 | 3.2 | 0.00 | 0.05 | 0.05 | 83 | 1008.4 |
| 20260506131920 | 17 | 159 | 1.6 | 3.2 | 0.00 | 0.05 | 0.05 | 83 | 1008.5 |
| 20260506131416 | 17 | 87 | 0.0 | 0.0 | 0.00 | 0.05 | 0.05 | 83 | 1008.4 |
| 20260506130913 | 17 | 113 | 0.0 | 1.6 | 0.00 | 0.05 | 0.05 | 83 | 1008.5 |
| 20260506130409 | 17 | 137 | 1.6 | 4.8 | 0.00 | 0.05 | 0.05 | 82 | 1008.6 |
| 20260506125908 | 17 | 168 | 1.6 | 3.2 | 0.18 | 0.05 | 0.05 | 83 | 1008.5 |
| 20260506125406 | 17 | 179 | 3.2 | 3.2 | 0.18 | 0.05 | 0.05 | 82 | 1008.7 |
| 20260506124904 | 17 | 203 | 3.2 | 1.6 | 0.00 | 0.03 | 0.03 | 80 | 1008.7 |
| 20260506124400 | 17 | 282 | 0.0 | 1.6 | 0.00 | 0.03 | 0.03 | 79 | 1008.7 |
| 20260506123858 | 17 | 260 | 0.0 | 1.6 | 0.00 | 0.03 | 0.03 | 77 | 1008.9 |
| 20260506123356 | 17 | 230 | 0.0 | 0.0 | 0.00 | 0.03 | 0.03 | 78 | 1008.7 |
| 20260506122853 | 17 | 277 | 0.0 | 1.6 | 0.13 | 0.03 | 0.03 | 77 | 1008.9 |
| 20260506122350 | 17 | 249 | 0.0 | 0.0 | 0.13 | 0.03 | 0.03 | 77 | 1009.0 |
| 20260506121848 | 17 | 258 | 1.6 | 1.6 | 0.00 | 0.00 | 0.00 | 76 | 1008.9 |
| 20260506121345 | 17 | 271 | 3.2 | 4.8 | 0.00 | 0.00 | 0.00 | 75 | 1009.2 |
| 20260506120842 | 17 | 271 | 0.0 | 1.6 | 0.00 | 0.00 | 0.00 | 75 | 1009.1 |
| 20260506120340 | 18 | 277 | 0.0 | 1.6 | 0.00 | 0.00 | 0.00 | 74 | 1009.0 |
| 20260506115837 | 18 | 286 | 0.0 | 3.2 | 0.00 | 0.00 | 0.00 | 73 | 1009.0 |
| 20260506115335 | 18 | 239 | 0.0 | 0.0 | 0.00 | 0.00 | 0.00 | 72 | 1008.4 |
| 20260506114833 | 18 | 270 | 1.6 | 4.8 | 0.00 | 0.00 | 0.00 | 70 | 1008.6 |
| 20260506114330 | 18 | 187 | 3.2 | 4.8 | 0.00 | 0.00 | 0.00 | 69 | 1008.6 |
| 20260506113829 | 18 | 187 | 1.6 | 3.2 | 0.00 | 0.00 | 0.00 | 68 | 1008.2 |
| 20260506113326 | 18 | 245 | 3.2 | 4.8 | 0.00 | 0.00 | 0.00 | 68 | 1008.6 |
| 20260506112822 | 18 | 230 | 0.0 | 1.6 | 0.00 | 0.00 | 0.00 | 69 | 1008.4 |
| 20260506112320 | 18 | 271 | 1.6 | 4.8 | 0.00 | 0.00 | 0.00 | 68 | 1008.4 |
| 20260506111817 | 18 | 233 | 0.0 | 0.0 | 0.00 | 0.00 | 0.00 | 68 | 1008.3 |
| 20260506111315 | 18 | 273 | 1.6 | 3.2 | 0.00 | 0.00 | 0.00 | 66 | 1008.5 |
| 20260506110812 | 18 | 262 | 0.0 | 1.6 | 0.00 | 0.00 | 0.00 | 66 | 1008.2 |
| 20260506110309 | 19 | 218 | 0.0 | 6.4 | 0.00 | 0.00 | 0.00 | 65 | 1008.3 |
| 20260506105806 | 19 | 174 | 1.6 | 6.4 | 0.00 | 0.00 | 0.00 | 64 | 1008.1 |
| 20260506105305 | 19 | 219 | 0.0 | 4.8 | 0.00 | 0.00 | 0.00 | 63 | 1008.1 |
| 20260506104800 | 19 | 100 | 1.6 | 3.2 | 0.00 | 0.00 | 0.00 | 63 | 1007.8 |
| 20260506104258 | 19 | 240 | 0.0 | 3.2 | 0.00 | 0.00 | 0.00 | 62 | 1007.9 |
| 20260506103755 | 19 | 193 | 4.8 | 9.7 | 0.00 | 0.00 | 0.00 | 62 | 1008.0 |
| 20260506103253 | 19 | 210 | 3.2 | 3.2 | 0.00 | 0.00 | 0.00 | 61 | 1008.1 |
| 20260506102750 | 19 | 57 | 3.2 | 6.4 | 0.00 | 0.00 | 0.00 | 61 | 1008.1 |
| 20260506102248 | 19 | 155 | 3.2 | 6.4 | 0.00 | 0.00 | 0.00 | 61 | 1007.8 |
| 20260506101744 | 19 | 94 | 3.2 | 3.2 | 0.00 | 0.00 | 0.00 | 61 | 1007.6 |
| 20260506101241 | 19 | 206 | 1.6 | 3.2 | 0.00 | 0.00 | 0.00 | 61 | 1007.8 |
| 20260506100739 | 19 | 85 | 0.0 | 1.6 | 0.00 | 0.00 | 0.00 | 60 | 1007.8 |
| 20260506100237 | 19 | 142 | 3.2 | 9.7 | 0.00 | 0.00 | 0.00 | 60 | 1007.8 |
| 20260506095736 | 19 | 293 | 0.0 | 3.2 | 0.00 | 0.00 | 0.00 | 60 | 1007.6 |
| 20260506095232 | 19 | 171 | 0.0 | 3.2 | 0.00 | 0.00 | 0.00 | 60 | 1007.6 |
| 20260506094728 | 19 | 107 | 6.4 | 9.7 | 0.00 | 0.00 | 0.00 | 60 | 1007.7 |
| 20260506094227 | 20 | 119 | 1.6 | 1.6 | 0.00 | 0.00 | 0.00 | 59 | 1007.6 |
| 20260506093726 | 20 | 146 | 3.2 | 3.2 | 0.00 | 0.00 | 0.00 | 59 | 1007.5 |
| 20260506093222 | 20 | 274 | 1.6 | 6.4 | 0.00 | 0.00 | 0.00 | 59 | 1007.5 |
| 20260506092720 | 20 | 111 | 0.0 | 9.7 | 0.00 | 0.00 | 0.00 | 58 | 1007.7 |
| 20260506092217 | 20 | 132 | 4.8 | 4.8 | 0.00 | 0.00 | 0.00 | 58 | 1007.6 |
| 20260506091715 | 20 | 119 | 1.6 | 3.2 | 0.00 | 0.00 | 0.00 | 58 | 1007.9 |
| 20260506091212 | 20 | 150 | 1.6 | 4.8 | 0.00 | 0.00 | 0.00 | 57 | 1008.0 |
| 20260506090710 | 20 | 155 | 1.6 | 4.8 | 0.00 | 0.00 | 0.00 | 57 | 1008.0 |
| 20260506090206 | 20 | 169 | 1.6 | 3.2 | 0.00 | 0.00 | 0.00 | 57 | 1007.8 |
| 20260506085703 | 20 | 153 | 1.6 | 3.2 | 0.00 | 0.00 | 0.00 | 56 | 1008.0 |
| 20260506085159 | 20 | 172 | 1.6 | 1.6 | 0.00 | 0.00 | 0.00 | 56 | 1007.8 |
| 20260506084656 | 20 | 143 | 0.0 | 3.2 | 0.00 | 0.00 | 0.00 | 56 | 1007.9 |
| 20260506084152 | 20 | 132 | 1.6 | 4.8 | 0.00 | 0.00 | 0.00 | 56 | 1007.8 |
| 20260506083649 | 20 | 188 | 3.2 | 12.9 | 0.00 | 0.00 | 0.00 | 55 | 1007.9 |
| 20260506083147 | 20 | 137 | 4.8 | 9.7 | 0.00 | 0.00 | 0.00 | 55 | 1007.9 |
| 20260506082645 | 20 | 140 | 0.0 | 6.4 | 0.00 | 0.00 | 0.00 | 54 | 1007.8 |
| 20260506082144 | 20 | 165 | 3.2 | 4.8 | 0.00 | 0.00 | 0.00 | 54 | 1007.8 |
| 20260506081643 | 20 | 110 | 0.0 | 3.2 | 0.00 | 0.00 | 0.00 | 54 | 1007.8 |
| 20260506081140 | 20 | 191 | 3.2 | 4.8 | 0.00 | 0.00 | 0.00 | 53 | 1007.8 |
| 20260506080638 | 21 | 97 | 0.0 | 4.8 | 0.00 | 0.00 | 0.00 | 53 | 1007.9 |
| 20260506080134 | 21 | 74 | 1.6 | 3.2 | 0.00 | 0.00 | 0.00 | 53 | 1007.8 |
| 20260506073118 | 21 | 105 | 1.6 | 3.2 | 0.00 | 0.00 | 0.00 | 51 | 1008.0 |
| 20260506072615 | 21 | 133 | 1.6 | 4.8 | 0.00 | 0.00 | 0.00 | 51 | 1008.1 |
| 20260506072113 | 21 | 64 | 0.0 | 4.8 | 0.00 | 0.00 | 0.00 | 51 | 1008.0 |
| 20260506071610 | 21 | 196 | 1.6 | 3.2 | 0.00 | 0.00 | 0.00 | 51 | 1008.0 |
| 20260506071108 | 21 | 238 | 3.2 | 3.2 | 0.00 | 0.00 | 0.00 | 51 | 1008.2 |
| 20260506070605 | 21 | 211 | 0.0 | 3.2 | 0.00 | 0.00 | 0.00 | 50 | 1008.0 |
| 20260506062039 | 21 | 274 | 1.6 | 1.6 | 0.00 | 0.00 | 0.00 | 49 | 1008.5 |
| 20260506061534 | 21 | 256 | 1.6 | 1.6 | 0.00 | 0.00 | 0.00 | 48 | 1008.7 |
| 20260506061032 | 21 | 186 | 3.2 | 3.2 | 0.00 | 0.00 | 0.00 | 48 | 1008.6 |
| 20260506060531 | 21 | 183 | 3.2 | 12.9 | 0.00 | 0.00 | 0.00 | 48 | 1008.6 |